Time;durP1;ratioP1;P1;durP2;ratioP2;P2;SDS_P1;SDS_P2;PMS_P1;PMS_P2;Temp;Humidity;BMP_temperature;BMP_pressure;BME280_temperature;BME280_humidity;BME280_pressure;Samples;Min_cycle;Max_cycle;Signal;HPM_P1;HPM_P2
2023/06/26 00:01:22;;;;;;;9.32;5.15;;;;;;;;;;6270774;22;20027;-62
2023/06/26 00:04:14;;;;;;;8.63;5.90;;;;;;;;;;6270594;22;20049;-62
2023/06/26 00:07:02;;;;;;;8.98;5.70;;;;;;;;;;6269751;22;20461;-61
2023/06/26 00:09:49;;;;;;;7.50;5.32;;;;;;;;;;6269330;22;20519;-61
2023/06/26 00:12:43;;;;;;;5.60;4.95;;;;;;;;;;6269090;22;20531;-61
2023/06/26 00:15:31;;;;;;;6.45;5.28;;;;;;;;;;6270317;22;20019;-61
2023/06/26 00:18:31;;;;;;;8.68;5.63;;;;;;;;;;6269220;22;20070;-61
2023/06/26 00:21:19;;;;;;;12.43;6.10;;;;;;;;;;6269795;22;20540;-61
2023/06/26 00:24:13;;;;;;;9.18;6.10;;;;;;;;;;6269235;22;20930;-61
2023/06/26 00:27:00;;;;;;;10.10;5.68;;;;;;;;;;6270797;22;20078;-61
2023/06/26 00:29:53;;;;;;;7.25;5.78;;;;;;;;;;6269785;22;20085;-60
2023/06/26 00:32:40;;;;;;;7.07;6.18;;;;;;;;;;6269404;22;20024;-61
2023/06/26 00:35:35;;;;;;;6.45;5.53;;;;;;;;;;6269440;22;20069;-61
2023/06/26 00:38:21;;;;;;;7.68;5.32;;;;;;;;;;6268653;22;20031;-61
2023/06/26 00:41:15;;;;;;;8.98;6.03;;;;;;;;;;6269120;22;20020;-61
2023/06/26 00:44:03;;;;;;;6.95;5.20;;;;;;;;;;6269329;22;20437;-61
2023/06/26 00:46:56;;;;;;;8.77;5.50;;;;;;;;;;6271063;22;20431;-61
2023/06/26 00:49:43;;;;;;;6.03;4.90;;;;;;;;;;6267918;22;20051;-61
2023/06/26 00:52:37;;;;;;;5.82;4.97;;;;;;;;;;6269398;22;20023;-61
2023/06/26 00:55:25;;;;;;;5.72;4.68;;;;;;;;;;6271062;22;20121;-61
2023/06/26 00:58:18;;;;;;;5.70;4.68;;;;;;;;;;6268122;22;20027;-61
2023/06/26 01:01:08;;;;;;;8.57;4.80;;;;;;;;;;6271007;22;20098;-59
2023/06/26 01:03:59;;;;;;;7.75;5.65;;;;;;;;;;6270232;22;20024;-61
2023/06/26 01:06:51;;;;;;;8.60;6.47;;;;;;;;;;6268856;22;20074;-60
2023/06/26 01:09:44;;;;;;;7.68;6.20;;;;;;;;;;6268812;22;20023;-61
2023/06/26 01:12:32;;;;;;;10.98;6.43;;;;;;;;;;6268019;22;20077;-61
2023/06/26 01:15:33;;;;;;;8.23;6.07;;;;;;;;;;6270121;22;20026;-60
2023/06/26 01:18:27;;;;;;;7.88;6.43;;;;;;;;;;6239312;23;20024;-61
2023/06/26 01:21:21;;;;;;;7.57;5.72;;;;;;;;;;6238832;23;20024;-61
2023/06/26 01:24:14;;;;;;;7.20;5.57;;;;;;;;;;6238620;23;20020;-61
2023/06/26 01:27:08;;;;;;;9.07;6.10;;;;;;;;;;6237831;23;20322;-61
2023/06/26 01:29:55;;;;;;;6.90;6.05;;;;;;;;;;6239640;23;20168;-60
2023/06/26 01:32:50;;;;;;;9.25;6.03;;;;;;;;;;6239470;23;20020;-61
2023/06/26 01:35:36;;;;;;;8.57;5.88;;;;;;;;;;6239156;23;20020;-61
2023/06/26 01:38:30;;;;;;;8.88;6.60;;;;;;;;;;6239966;23;20028;-61
2023/06/26 01:41:18;;;;;;;8.13;6.18;;;;;;;;;;6238380;23;20078;-61
2023/06/26 01:44:18;;;;;;;10.55;7.00;;;;;;;;;;6239818;23;20074;-61
2023/06/26 01:47:17;;;;;;;7.43;6.00;;;;;;;;;;6238609;23;20408;-61
2023/06/26 01:50:10;;;;;;;8.10;6.60;;;;;;;;;;6235989;23;20028;-61
2023/06/26 01:52:57;;;;;;;7.15;6.28;;;;;;;;;;6240206;23;20409;-61
2023/06/26 01:55:54;;;;;;;9.25;6.68;;;;;;;;;;6238920;23;20109;-61
2023/06/26 01:58:43;;;;;;;7.32;6.30;;;;;;;;;;6238356;23;20024;-61
2023/06/26 02:01:37;;;;;;;11.40;7.22;;;;;;;;;;6239096;23;20454;-61
2023/06/26 02:04:24;;;;;;;8.48;6.30;;;;;;;;;;6237304;23;20026;-61
2023/06/26 02:07:18;;;;;;;7.53;5.88;;;;;;;;;;6238644;23;20024;-61
2023/06/26 02:10:06;;;;;;;6.93;5.53;;;;;;;;;;6237950;23;20091;-61
2023/06/26 02:13:01;;;;;;;10.07;5.38;;;;;;;;;;6238692;23;20024;-61
2023/06/26 02:15:48;;;;;;;6.15;5.10;;;;;;;;;;6240635;22;20397;-61
2023/06/26 02:18:48;;;;;;;7.60;5.60;;;;;;;;;;6268477;22;20081;-61
2023/06/26 02:21:35;;;;;;;8.23;5.90;;;;;;;;;;6270397;22;20020;-61
2023/06/26 02:24:36;;;;;;;7.32;5.60;;;;;;;;;;6269785;22;20027;-60
2023/06/26 02:27:29;;;;;;;6.05;5.13;;;;;;;;;;6269914;22;20024;-61
2023/06/26 02:30:23;;;;;;;8.43;6.05;;;;;;;;;;6266572;22;20356;-61
2023/06/26 02:33:17;;;;;;;8.25;6.43;;;;;;;;;;6248228;22;20031;-61
2023/06/26 02:36:04;;;;;;;8.77;6.45;;;;;;;;;;6268733;22;20023;-61
2023/06/26 02:38:58;;;;;;;9.07;6.82;;;;;;;;;;6267240;22;20042;-61
2023/06/26 02:41:45;;;;;;;6.85;5.82;;;;;;;;;;6270152;22;20590;-60
2023/06/26 02:44:39;;;;;;;7.97;6.03;;;;;;;;;;6269040;22;20074;-61
2023/06/26 02:47:33;;;;;;;8.38;6.57;;;;;;;;;;6268961;22;20473;-61
2023/06/26 02:50:27;;;;;;;9.88;6.30;;;;;;;;;;6269091;22;20020;-60
2023/06/26 02:53:15;;;;;;;7.20;6.13;;;;;;;;;;6269200;22;20069;-61
2023/06/26 02:56:08;;;;;;;8.55;5.68;;;;;;;;;;6268104;22;20023;-61
2023/06/26 02:58:56;;;;;;;8.75;6.07;;;;;;;;;;6268394;22;20016;-61
2023/06/26 03:01:50;;;;;;;8.15;6.43;;;;;;;;;;6268047;22;20020;-60
2023/06/26 03:04:36;;;;;;;6.78;5.60;;;;;;;;;;6268613;22;20023;-61
2023/06/26 03:07:30;;;;;;;7.00;5.50;;;;;;;;;;6269837;22;20084;-60
2023/06/26 03:10:17;;;;;;;7.63;5.25;;;;;;;;;;6270786;22;20020;-60
2023/06/26 03:13:11;;;;;;;8.18;6.03;;;;;;;;;;6271131;22;20031;-61
2023/06/26 03:16:12;;;;;;;7.53;5.55;;;;;;;;;;6271014;22;20023;-61
2023/06/26 03:19:13;;;;;;;6.05;4.85;;;;;;;;;;6240364;23;20020;-60
2023/06/26 03:22:00;;;;;;;5.53;4.57;;;;;;;;;;6239725;23;20078;-64
2023/06/26 03:24:55;;;;;;;7.10;4.80;;;;;;;;;;6240388;23;20071;-64
2023/06/26 03:27:41;;;;;;;5.28;4.68;;;;;;;;;;6239294;23;20024;-63
2023/06/26 03:30:35;;;;;;;3.67;3.30;;;;;;;;;;6238497;23;20020;-63
2023/06/26 03:33:23;;;;;;;4.63;3.55;;;;;;;;;;6239088;23;20086;-65
2023/06/26 03:36:16;;;;;;;6.53;4.05;;;;;;;;;;6240900;23;20039;-60
2023/06/26 03:39:04;;;;;;;4.53;3.67;;;;;;;;;;6239287;23;20043;-60
2023/06/26 03:42:00;;;;;;;5.53;4.70;;;;;;;;;;6238650;23;20419;-60
2023/06/26 03:44:45;;;;;;;7.03;5.60;;;;;;;;;;6238926;23;20425;-60
2023/06/26 03:47:38;;;;;;;6.30;5.18;;;;;;;;;;6238152;23;20020;-60
2023/06/26 03:50:25;;;;;;;5.45;4.82;;;;;;;;;;6240084;23;20119;-60
2023/06/26 03:53:19;;;;;;;6.40;5.07;;;;;;;;;;6238689;23;20327;-60
2023/06/26 03:56:14;;;;;;;5.88;5.03;;;;;;;;;;6239396;23;20024;-60
2023/06/26 03:59:07;;;;;;;5.47;4.88;;;;;;;;;;6239743;23;20024;-63
2023/06/26 04:01:54;;;;;;;5.93;4.80;;;;;;;;;;6238319;23;20024;-63
2023/06/26 04:04:48;;;;;;;6.32;5.07;;;;;;;;;;6240730;23;20022;-63
2023/06/26 04:07:35;;;;;;;5.72;4.57;;;;;;;;;;6240429;23;20086;-60
2023/06/26 04:10:29;;;;;;;5.40;4.50;;;;;;;;;;6240327;23;20020;-60
2023/06/26 04:13:23;;;;;;;5.47;4.13;;;;;;;;;;6240630;23;20397;-60
2023/06/26 04:16:11;;;;;;;6.20;3.90;;;;;;;;;;6238667;22;20032;-59
2023/06/26 04:19:11;;;;;;;8.55;4.30;;;;;;;;;;6239702;23;20074;-61
2023/06/26 04:22:00;;;;;;;6.55;4.18;;;;;;;;;;6240358;23;20405;-60
2023/06/26 04:24:54;;;;;;;6.47;4.32;;;;;;;;;;6239517;23;20024;-61
2023/06/26 04:27:42;;;;;;;4.97;4.30;;;;;;;;;;6239403;23;20074;-60
2023/06/26 04:30:35;;;;;;;4.68;4.00;;;;;;;;;;6238168;23;20047;-61
2023/06/26 04:33:23;;;;;;;6.60;4.47;;;;;;;;;;6236700;23;20400;-60
2023/06/26 04:36:16;;;;;;;5.97;4.65;;;;;;;;;;6238746;23;20024;-60
2023/06/26 04:39:04;;;;;;;6.25;4.18;;;;;;;;;;6235903;23;20082;-60
2023/06/26 04:41:58;;;;;;;2.50;2.20;;;;;;;;;;6237628;23;20054;-60
2023/06/26 04:44:45;;;;;;;6.60;4.30;;;;;;;;;;6231663;23;20602;-60
2023/06/26 04:47:39;;;;;;;5.55;4.72;;;;;;;;;;6237239;23;20024;-61
2023/06/26 04:50:28;;;;;;;5.32;4.60;;;;;;;;;;6238469;23;20020;-59
2023/06/26 04:53:19;;;;;;;8.82;5.13;;;;;;;;;;6238670;23;20059;-60
2023/06/26 04:56:06;;;;;;;5.25;4.68;;;;;;;;;;6238466;23;20043;-59
2023/06/26 04:59:00;;;;;;;5.38;4.88;;;;;;;;;;6240510;23;20113;-60
2023/06/26 05:01:48;;;;;;;6.78;4.80;;;;;;;;;;6240148;23;20389;-59
2023/06/26 05:04:42;;;;;;;7.10;5.43;;;;;;;;;;6238660;23;20024;-60
2023/06/26 05:07:29;;;;;;;8.00;5.22;;;;;;;;;;6238602;23;20054;-59
2023/06/26 05:10:23;;;;;;;11.27;5.18;;;;;;;;;;6237451;23;20082;-60
2023/06/26 05:13:10;;;;;;;7.18;5.13;;;;;;;;;;6238773;23;20082;-59
2023/06/26 05:16:04;;;;;;;6.15;5.15;;;;;;;;;;6237086;23;20046;-59
2023/06/26 05:18:58;;;;;;;8.93;5.05;;;;;;;;;;6221354;23;20023;-59
2023/06/26 05:21:51;;;;;;;6.13;5.07;;;;;;;;;;6238495;23;20082;-59
2023/06/26 05:24:47;;;;;;;7.07;5.53;;;;;;;;;;6239131;23;20097;-58
2023/06/26 05:27:34;;;;;;;6.07;5.03;;;;;;;;;;6235473;23;20339;-59
2023/06/26 05:30:30;;;;;;;8.48;5.70;;;;;;;;;;6238158;23;20500;-59
2023/06/26 05:33:18;;;;;;;5.95;5.22;;;;;;;;;;6237243;23;20535;-59
2023/06/26 05:36:13;;;;;;;6.13;5.53;;;;;;;;;;6237936;23;20028;-59
2023/06/26 05:39:00;;;;;;;5.38;4.93;;;;;;;;;;6238721;23;20385;-59
2023/06/26 05:41:54;;;;;;;9.05;4.97;;;;;;;;;;6239719;23;20074;-59
2023/06/26 05:44:41;;;;;;;6.57;5.40;;;;;;;;;;6238411;23;20090;-59
2023/06/26 05:47:35;;;;;;;6.90;5.72;;;;;;;;;;6239062;23;20090;-59
2023/06/26 05:50:23;;;;;;;5.97;5.38;;;;;;;;;;6238454;23;20078;-59
2023/06/26 05:53:16;;;;;;;11.23;4.95;;;;;;;;;;6237802;23;20024;-59
2023/06/26 05:56:04;;;;;;;5.65;4.85;;;;;;;;;;6238049;23;20473;-59
2023/06/26 05:58:57;;;;;;;6.03;4.80;;;;;;;;;;6238671;23;20112;-59
2023/06/26 06:01:45;;;;;;;7.32;5.22;;;;;;;;;;6237531;23;20354;-59
2023/06/26 06:04:38;;;;;;;5.22;4.57;;;;;;;;;;6235982;23;20016;-59
2023/06/26 06:07:26;;;;;;;4.32;3.92;;;;;;;;;;6237853;23;20055;-58
2023/06/26 06:10:20;;;;;;;7.35;4.35;;;;;;;;;;6237079;23;20203;-59
2023/06/26 06:13:08;;;;;;;5.00;4.50;;;;;;;;;;6237900;23;20024;-58
2023/06/26 06:16:01;;;;;;;6.45;4.15;;;;;;;;;;6237603;23;20024;-60
2023/06/26 06:18:55;;;;;;;4.97;4.20;;;;;;;;;;6268075;22;20023;-59
2023/06/26 06:21:49;;;;;;;5.57;4.00;;;;;;;;;;6268888;22;20023;-59
2023/06/26 06:24:36;;;;;;;4.68;4.10;;;;;;;;;;6268592;22;20063;-59
2023/06/26 06:27:31;;;;;;;8.40;4.57;;;;;;;;;;6269483;22;20015;-60
2023/06/26 06:30:17;;;;;;;4.70;4.20;;;;;;;;;;6268862;22;20027;-59
2023/06/26 06:33:12;;;;;;;7.88;4.10;;;;;;;;;;6267714;22;20046;-59
2023/06/26 06:36:06;;;;;;;5.55;4.20;;;;;;;;;;6268706;22;20337;-59
2023/06/26 06:39:00;;;;;;;5.47;4.18;;;;;;;;;;6270153;22;20069;-60
2023/06/26 06:41:47;;;;;;;4.63;4.15;;;;;;;;;;6266785;22;20026;-59
2023/06/26 06:44:41;;;;;;;16.20;4.72;;;;;;;;;;6268831;22;20016;-59
2023/06/26 06:47:28;;;;;;;11.93;4.18;;;;;;;;;;6268911;22;20024;-59
2023/06/26 06:50:22;;;;;;;5.13;4.10;;;;;;;;;;6268121;22;20317;-59
2023/06/26 06:53:10;;;;;;;8.45;4.10;;;;;;;;;;6268512;22;20036;-58
2023/06/26 06:56:03;;;;;;;4.38;3.72;;;;;;;;;;6269606;22;20036;-59
2023/06/26 06:58:57;;;;;;;6.10;3.90;;;;;;;;;;6268535;22;20026;-58
2023/06/26 07:01:45;;;;;;;9.00;4.00;;;;;;;;;;6268597;22;20411;-58
2023/06/26 07:04:38;;;;;;;7.30;4.05;;;;;;;;;;6268061;22;20023;-59
2023/06/26 07:07:30;;;;;;;7.40;3.92;;;;;;;;;;6262903;22;20026;-59
2023/06/26 07:10:22;;;;;;;4.40;3.47;;;;;;;;;;6269520;22;20039;-59
2023/06/26 07:13:10;;;;;;;5.47;3.83;;;;;;;;;;6245493;22;20408;-59
2023/06/26 07:16:03;;;;;;;4.47;3.97;;;;;;;;;;6266423;22;20031;-60
2023/06/26 07:18:57;;;;;;;4.13;3.72;;;;;;;;;;6268594;22;20024;-59
2023/06/26 07:21:50;;;;;;;4.25;3.45;;;;;;;;;;6268435;22;20027;-59
2023/06/26 07:24:37;;;;;;;5.40;3.88;;;;;;;;;;6269120;22;20081;-59
2023/06/26 07:27:33;;;;;;;3.70;3.28;;;;;;;;;;6267334;22;20047;-59
2023/06/26 07:30:19;;;;;;;4.15;3.20;;;;;;;;;;6266592;22;20027;-59
2023/06/26 07:33:12;;;;;;;5.10;3.22;;;;;;;;;;6268306;22;20100;-59
2023/06/26 07:36:00;;;;;;;4.32;3.30;;;;;;;;;;6267544;22;20023;-59
2023/06/26 07:38:53;;;;;;;3.17;2.33;;;;;;;;;;6267585;22;20773;-59
2023/06/26 07:41:48;;;;;;;4.13;2.40;;;;;;;;;;6269551;22;20020;-59
2023/06/26 07:44:43;;;;;;;2.80;2.10;;;;;;;;;;6267014;22;20023;-60
2023/06/26 07:47:30;;;;;;;3.30;1.98;;;;;;;;;;6267446;22;20468;-60
2023/06/26 07:50:24;;;;;;;2.65;1.83;;;;;;;;;;6268761;22;20024;-60
2023/06/26 07:53:11;;;;;;;3.05;2.20;;;;;;;;;;6268303;22;20026;-59
2023/06/26 07:56:04;;;;;;;2.90;2.20;;;;;;;;;;6269503;22;20020;-60
2023/06/26 07:58:52;;;;;;;3.45;2.30;;;;;;;;;;6269330;22;20111;-59
2023/06/26 08:01:45;;;;;;;2.35;2.15;;;;;;;;;;6271241;22;20055;-59
2023/06/26 08:04:39;;;;;;;14.45;2.80;;;;;;;;;;6267591;22;20024;-59
2023/06/26 08:07:27;;;;;;;3.55;2.20;;;;;;;;;;6270307;22;20047;-60
2023/06/26 08:10:20;;;;;;;4.55;2.00;;;;;;;;;;6268119;22;20031;-59
2023/06/26 20:16:53;;;;;;;8.32;5.32;;;;;;;;;;6234478;23;20233;-62
2023/06/26 20:19:48;;;;;;;8.93;4.95;;;;;;;;;;6235741;23;20082;-62
2023/06/26 20:22:35;;;;;;;12.23;5.82;;;;;;;;;;6237257;23;20020;-62
2023/06/26 20:25:29;;;;;;;8.05;5.18;;;;;;;;;;6232591;23;20024;-61
2023/06/26 20:28:16;;;;;;;6.20;5.35;;;;;;;;;;6233440;23;20028;-62
2023/06/26 20:31:10;;;;;;;10.10;6.40;;;;;;;;;;6238740;23;20020;-62
2023/06/26 20:33:57;;;;;;;12.25;5.80;;;;;;;;;;6236696;23;20094;-62
2023/06/26 20:36:51;;;;;;;9.25;5.40;;;;;;;;;;6239565;23;20020;-62
2023/06/26 20:39:38;;;;;;;11.30;5.72;;;;;;;;;;6239269;23;20016;-62
2023/06/26 20:42:32;;;;;;;9.48;6.75;;;;;;;;;;6239100;23;20082;-62
2023/06/26 20:45:19;;;;;;;10.77;6.75;;;;;;;;;;6238660;23;20070;-62
2023/06/26 20:48:13;;;;;;;17.30;7.07;;;;;;;;;;6238154;23;20016;-62
2023/06/26 20:51:07;;;;;;;15.45;6.97;;;;;;;;;;6239367;23;20090;-62
2023/06/26 20:53:55;;;;;;;14.05;7.10;;;;;;;;;;6238262;23;20026;-62
2023/06/26 20:56:49;;;;;;;24.95;10.07;;;;;;;;;;6239545;23;20024;-62
2023/06/26 20:59:39;;;;;;;11.55;7.57;;;;;;;;;;6240357;23;20020;-62
2023/06/26 21:02:33;;;;;;;12.23;7.95;;;;;;;;;;6237940;23;20047;-62
2023/06/26 21:05:20;;;;;;;13.77;7.32;;;;;;;;;;6239924;23;20020;-62
2023/06/26 21:08:13;;;;;;;10.75;7.72;;;;;;;;;;6236992;23;20074;-62
2023/06/26 21:11:01;;;;;;;11.80;7.50;;;;;;;;;;6237307;23;20086;-64
2023/06/26 21:13:55;;;;;;;14.57;8.77;;;;;;;;;;6239316;23;20082;-62
2023/06/26 21:16:48;;;;;;;16.02;8.15;;;;;;;;;;6268040;22;20538;-62
2023/06/26 21:19:42;;;;;;;10.23;8.05;;;;;;;;;;6268247;22;20023;-62
2023/06/26 21:22:29;;;;;;;11.13;7.45;;;;;;;;;;6269261;22;20024;-62
2023/06/26 21:25:22;;;;;;;17.35;8.95;;;;;;;;;;6268828;22;20023;-63
2023/06/26 21:28:10;;;;;;;12.82;9.00;;;;;;;;;;6269884;22;20020;-62
2023/06/26 21:31:04;;;;;;;17.95;10.43;;;;;;;;;;6270617;22;20024;-63
2023/06/26 21:33:51;;;;;;;11.30;8.50;;;;;;;;;;6269228;22;20019;-63
2023/06/26 21:36:46;;;;;;;10.80;7.75;;;;;;;;;;6269048;22;20082;-62
2023/06/26 21:39:32;;;;;;;10.40;8.00;;;;;;;;;;6269200;22;20400;-62
2023/06/26 21:42:26;;;;;;;14.18;8.80;;;;;;;;;;6269795;22;20094;-62
2023/06/26 21:45:13;;;;;;;15.95;8.18;;;;;;;;;;6268359;22;20535;-62
2023/06/26 21:48:07;;;;;;;8.73;6.70;;;;;;;;;;6268373;22;20024;-62
2023/06/26 21:50:54;;;;;;;75.65;12.13;;;;;;;;;;6270211;22;20023;-62
2023/06/26 21:53:48;;;;;;;31.75;6.55;;;;;;;;;;6269829;22;20031;-62
2023/06/26 21:56:42;;;;;;;8.80;4.70;;;;;;;;;;6269222;22;20024;-61
2023/06/26 21:59:29;;;;;;;14.88;5.50;;;;;;;;;;6269013;22;20031;-61
2023/06/26 22:02:23;;;;;;;16.77;5.50;;;;;;;;;;6268681;22;20031;-60
2023/06/26 22:05:10;;;;;;;16.58;5.88;;;;;;;;;;6268077;22;20028;-61
2023/06/26 22:08:07;;;;;;;14.07;4.75;;;;;;;;;;6269396;22;20024;-60
2023/06/26 22:10:58;;;;;;;17.48;5.50;;;;;;;;;;6269277;22;20019;-61
2023/06/26 22:13:45;;;;;;;9.90;4.82;;;;;;;;;;6267750;22;20069;-61
2023/06/26 22:16:45;;;;;;;15.90;5.80;;;;;;;;;;6268960;22;20020;-61
2023/06/26 22:19:33;;;;;;;20.83;5.65;;;;;;;;;;6269125;22;20020;-61
2023/06/26 22:22:27;;;;;;;20.77;5.60;;;;;;;;;;6269343;22;20031;-61
2023/06/26 22:25:15;;;;;;;15.60;6.63;;;;;;;;;;6267332;22;20024;-62
2023/06/26 22:28:09;;;;;;;14.38;5.78;;;;;;;;;;6267374;22;20024;-61
2023/06/26 22:30:56;;;;;;;17.60;7.25;;;;;;;;;;6269461;22;20022;-61
2023/06/26 22:33:50;;;;;;;35.30;7.75;;;;;;;;;;6269528;22;20076;-61
2023/06/26 22:36:39;;;;;;;15.60;6.57;;;;;;;;;;6268947;22;20058;-62
2023/06/26 22:39:33;;;;;;;36.97;7.80;;;;;;;;;;6268832;22;20024;-62
2023/06/26 22:42:20;;;;;;;19.77;6.72;;;;;;;;;;6268562;22;20334;-61
2023/06/26 22:45:14;;;;;;;22.67;6.90;;;;;;;;;;6269685;22;20027;-61
2023/06/26 22:48:01;;;;;;;16.65;6.68;;;;;;;;;;6266663;22;20026;-62
2023/06/26 22:50:55;;;;;;;16.85;6.78;;;;;;;;;;6267811;22;20034;-62
2023/06/26 22:53:42;;;;;;;19.83;6.80;;;;;;;;;;6267746;22;20023;-61
2023/06/26 22:56:36;;;;;;;19.52;6.20;;;;;;;;;;6268822;22;20023;-61
2023/06/26 22:59:30;;;;;;;19.38;6.60;;;;;;;;;;6268902;22;20023;-61
2023/06/26 23:02:18;;;;;;;26.17;7.78;;;;;;;;;;6267825;22;20024;-61
2023/06/26 23:05:12;;;;;;;18.50;7.13;;;;;;;;;;6268754;22;20401;-61
2023/06/26 23:08:07;;;;;;;19.95;7.57;;;;;;;;;;6268467;22;20066;-62
2023/06/26 23:11:00;;;;;;;18.13;6.88;;;;;;;;;;6269652;22;20085;-62
2023/06/26 23:13:48;;;;;;;20.48;6.65;;;;;;;;;;6268473;22;20019;-62
2023/06/26 23:17:01;;;;;;;24.95;7.55;;;;;;;;;;6267570;22;20027;-63
2023/06/26 23:19:29;;;;;;;26.38;6.90;;;;;;;;;;6268263;22;20047;-62
2023/06/26 23:22:22;;;;;;;21.50;7.03;;;;;;;;;;6269410;22;20081;-61
2023/06/26 23:25:09;;;;;;;21.38;6.30;;;;;;;;;;6268861;22;20027;-60
2023/06/26 23:28:03;;;;;;;21.73;6.45;;;;;;;;;;6270572;22;20016;-61
2023/06/26 23:30:50;;;;;;;24.40;6.47;;;;;;;;;;6270614;22;20028;-60
2023/06/26 23:33:45;;;;;;;22.02;6.00;;;;;;;;;;6270657;22;20091;-61
2023/06/26 23:36:37;;;;;;;17.52;6.45;;;;;;;;;;6269234;22;20396;-61
2023/06/26 23:39:25;;;;;;;22.80;6.28;;;;;;;;;;6268356;22;20076;-61
2023/06/26 23:42:19;;;;;;;20.17;5.85;;;;;;;;;;6271407;22;20032;-61
2023/06/26 23:45:23;;;;;;;22.15;5.75;;;;;;;;;;6268777;22;20545;-62
2023/06/26 23:48:10;;;;;;;20.42;7.10;;;;;;;;;;6270503;22;20024;-61
2023/06/26 23:51:04;;;;;;;29.35;7.20;;;;;;;;;;6269882;22;20487;-61
2023/06/26 23:53:51;;;;;;;33.22;8.23;;;;;;;;;;6270072;22;20069;-61
2023/06/26 23:56:45;;;;;;;36.22;8.25;;;;;;;;;;6271232;22;20019;-61
2023/06/26 23:59:32;;;;;;;28.85;7.70;;;;;;;;;;6270184;22;20023;-61
